sensor_id;sensor_type;location;lat;lon;timestamp;pressure;altitude;pressure_sealevel;temperature;humidity
18850;BME280;4989;48.772;9.154;2023-05-23T00:02:03;97799.59;;;21.31;85.44
18850;BME280;4989;48.772;9.154;2023-05-23T00:07:09;97806.13;;;21.34;84.69
18850;BME280;4989;48.772;9.154;2023-05-23T00:12:11;97811.22;;;21.46;82.05
18850;BME280;4989;48.772;9.154;2023-05-23T00:17:14;97806.41;;;21.41;85.27
18850;BME280;4989;48.772;9.154;2023-05-23T00:22:18;97812.22;;;21.43;84.92
18850;BME280;4989;48.772;9.154;2023-05-23T00:27:20;97804.59;;;21.27;85.65
18850;BME280;4989;48.772;9.154;2023-05-23T00:32:23;97799.84;;;21.33;85.09
18850;BME280;4989;48.772;9.154;2023-05-23T00:37:26;97806.66;;;20.78;90.69
18850;BME280;4989;48.772;9.154;2023-05-23T00:42:29;97810.34;;;21.12;87.15
18850;BME280;4989;48.772;9.154;2023-05-23T00:47:33;97810.66;;;21.31;86.44
18850;BME280;4989;48.772;9.154;2023-05-23T00:52:42;97823.28;;;21.43;84.36
18850;BME280;4989;48.772;9.154;2023-05-23T00:57:45;97820.28;;;21.53;84.70
18850;BME280;4989;48.772;9.154;2023-05-23T01:02:48;97827.56;;;21.56;83.78
18850;BME280;4989;48.772;9.154;2023-05-23T01:07:54;97835.63;;;21.65;83.60
18850;BME280;4989;48.772;9.154;2023-05-23T01:18:47;97831.34;;;21.53;84.32
18850;BME280;4989;48.772;9.154;2023-05-23T01:29:42;97828.56;;;21.47;81.28
18850;BME280;4989;48.772;9.154;2023-05-23T01:34:46;97821.78;;;21.42;84.64
18850;BME280;4989;48.772;9.154;2023-05-23T01:39:49;97823.03;;;21.47;84.23
18850;BME280;4989;48.772;9.154;2023-05-23T01:44:52;97829.53;;;21.38;84.12
18850;BME280;4989;48.772;9.154;2023-05-23T01:49:56;97831.56;;;21.43;84.01
18850;BME280;4989;48.772;9.154;2023-05-23T01:55:02;97831.84;;;21.45;84.14
18850;BME280;4989;48.772;9.154;2023-05-23T02:00:12;97828.72;;;21.26;84.83
18850;BME280;4989;48.772;9.154;2023-05-23T02:05:16;97823.41;;;21.17;83.41
18850;BME280;4989;48.772;9.154;2023-05-23T02:10:19;97834.50;;;21.23;84.69
18850;BME280;4989;48.772;9.154;2023-05-23T02:15:22;97828.47;;;21.30;84.14
18850;BME280;4989;48.772;9.154;2023-05-23T02:20:24;97827.47;;;21.27;84.88
18850;BME280;4989;48.772;9.154;2023-05-23T02:25:26;97829.47;;;21.33;84.43
18850;BME280;4989;48.772;9.154;2023-05-23T02:30:29;97832.22;;;21.27;83.50
18850;BME280;4989;48.772;9.154;2023-05-23T02:35:31;97834.75;;;21.25;85.09
18850;BME280;4989;48.772;9.154;2023-05-23T02:40:33;97839.53;;;21.24;85.66
18850;BME280;4989;48.772;9.154;2023-05-23T02:45:36;97836.00;;;21.30;84.42
18850;BME280;4989;48.772;9.154;2023-05-23T02:50:38;97847.06;;;21.30;84.39
18850;BME280;4989;48.772;9.154;2023-05-23T02:55:41;97851.34;;;21.25;85.02
18850;BME280;4989;48.772;9.154;2023-05-23T03:00:44;97852.84;;;21.26;84.33
18850;BME280;4989;48.772;9.154;2023-05-23T03:05:46;97854.34;;;21.27;84.55
18850;BME280;4989;48.772;9.154;2023-05-23T03:10:50;97860.66;;;21.27;84.58
18850;BME280;4989;48.772;9.154;2023-05-23T03:15:52;97859.91;;;21.33;83.57
18850;BME280;4989;48.772;9.154;2023-05-23T03:20:54;97861.13;;;21.26;85.48
18850;BME280;4989;48.772;9.154;2023-05-23T03:25:57;97865.69;;;21.29;84.51
18850;BME280;4989;48.772;9.154;2023-05-23T03:31:01;97876.75;;;21.35;83.59
18850;BME280;4989;48.772;9.154;2023-05-23T03:36:03;97868.19;;;21.33;82.83
18850;BME280;4989;48.772;9.154;2023-05-23T03:41:06;97868.16;;;21.27;82.85
18850;BME280;4989;48.772;9.154;2023-05-23T03:46:08;97872.94;;;21.21;84.33
18850;BME280;4989;48.772;9.154;2023-05-23T03:51:10;97866.41;;;21.24;82.27
18850;BME280;4989;48.772;9.154;2023-05-23T03:56:15;97868.94;;;21.22;82.95
18850;BME280;4989;48.772;9.154;2023-05-23T04:01:17;97869.69;;;21.28;82.46
18850;BME280;4989;48.772;9.154;2023-05-23T04:06:21;97861.34;;;21.17;82.80
18850;BME280;4989;48.772;9.154;2023-05-23T04:11:24;97871.91;;;21.13;83.16
18850;BME280;4989;48.772;9.154;2023-05-23T04:16:27;97879.97;;;21.22;82.59
18850;BME280;4989;48.772;9.154;2023-05-23T04:21:30;97881.00;;;21.30;82.63
18850;BME280;4989;48.772;9.154;2023-05-23T04:26:42;97885.03;;;21.29;81.92
18850;BME280;4989;48.772;9.154;2023-05-23T04:31:44;97883.97;;;21.21;83.05
18850;BME280;4989;48.772;9.154;2023-05-23T04:36:48;97889.03;;;21.22;81.87
18850;BME280;4989;48.772;9.154;2023-05-23T04:41:51;97889.81;;;21.28;82.73
18850;BME280;4989;48.772;9.154;2023-05-23T04:47:00;97900.13;;;21.28;81.77
18850;BME280;4989;48.772;9.154;2023-05-23T04:52:22;97909.13;;;21.23;81.99
18850;BME280;4989;48.772;9.154;2023-05-23T04:57:25;97904.09;;;21.16;83.53
18850;BME280;4989;48.772;9.154;2023-05-23T05:02:28;97915.66;;;21.20;80.72
18850;BME280;4989;48.772;9.154;2023-05-23T05:07:36;97913.66;;;21.26;80.75
18850;BME280;4989;48.772;9.154;2023-05-23T05:12:40;97919.72;;;21.30;81.27
18850;BME280;4989;48.772;9.154;2023-05-23T05:17:43;97922.75;;;21.32;81.04
18850;BME280;4989;48.772;9.154;2023-05-23T05:22:55;97931.78;;;21.27;81.20
18850;BME280;4989;48.772;9.154;2023-05-23T05:28:01;97926.53;;;21.35;81.31
18850;BME280;4989;48.772;9.154;2023-05-23T05:33:14;97937.09;;;21.31;82.06
18850;BME280;4989;48.772;9.154;2023-05-23T05:38:17;97934.03;;;21.23;82.63
18850;BME280;4989;48.772;9.154;2023-05-23T05:43:20;97935.81;;;21.32;81.42
18850;BME280;4989;48.772;9.154;2023-05-23T05:48:23;97932.81;;;21.35;81.94
18850;BME280;4989;48.772;9.154;2023-05-23T05:53:28;97934.94;;;21.52;80.47
18850;BME280;4989;48.772;9.154;2023-05-23T05:58:30;97938.69;;;21.54;78.92
18850;BME280;4989;48.772;9.154;2023-05-23T06:03:39;97928.16;;;21.53;78.56
18850;BME280;4989;48.772;9.154;2023-05-23T06:08:43;97945.25;;;21.57;79.05
18850;BME280;4989;48.772;9.154;2023-05-23T06:13:49;97932.47;;;21.65;77.82
18850;BME280;4989;48.772;9.154;2023-05-23T06:18:52;97935.75;;;21.69;79.03
18850;BME280;4989;48.772;9.154;2023-05-23T06:23:56;97942.03;;;21.75;77.71
18850;BME280;4989;48.772;9.154;2023-05-23T06:28:59;97943.56;;;21.70;78.50
18850;BME280;4989;48.772;9.154;2023-05-23T06:34:01;97943.03;;;21.72;78.03
18850;BME280;4989;48.772;9.154;2023-05-23T06:39:03;97951.09;;;21.70;78.66
18850;BME280;4989;48.772;9.154;2023-05-23T06:44:09;97964.66;;;21.68;77.67
18850;BME280;4989;48.772;9.154;2023-05-23T06:49:15;97977.47;;;21.65;78.36
18850;BME280;4989;48.772;9.154;2023-05-23T06:54:19;97980.69;;;21.53;78.67
18850;BME280;4989;48.772;9.154;2023-05-23T06:59:21;97985.19;;;21.44;78.67
18850;BME280;4989;48.772;9.154;2023-05-23T07:04:24;97999.28;;;21.46;77.55
18850;BME280;4989;48.772;9.154;2023-05-23T07:09:27;97998.66;;;21.31;77.64
18850;BME280;4989;48.772;9.154;2023-05-23T07:14:40;98007.91;;;21.22;78.58
18850;BME280;4989;48.772;9.154;2023-05-23T07:19:45;98011.16;;;21.21;78.54
18850;BME280;4989;48.772;9.154;2023-05-23T07:24:48;98014.66;;;21.16;75.97
18850;BME280;4989;48.772;9.154;2023-05-23T07:29:51;98013.69;;;21.19;76.67
18850;BME280;4989;48.772;9.154;2023-05-23T07:34:54;98012.94;;;21.18;77.35
18850;BME280;4989;48.772;9.154;2023-05-23T07:39:56;98018.22;;;21.22;77.28
18850;BME280;4989;48.772;9.154;2023-05-23T07:44:59;98021.97;;;21.19;77.21
18850;BME280;4989;48.772;9.154;2023-05-23T07:50:03;98027.47;;;21.13;76.91
18850;BME280;4989;48.772;9.154;2023-05-23T07:55:07;98032.28;;;21.24;78.07
18850;BME280;4989;48.772;9.154;2023-05-23T08:00:10;98023.81;;;21.33;75.04
18850;BME280;4989;48.772;9.154;2023-05-23T08:05:16;98039.75;;;21.44;76.59
18850;BME280;4989;48.772;9.154;2023-05-23T08:10:24;98043.06;;;21.54;74.93
18850;BME280;4989;48.772;9.154;2023-05-23T08:15:36;98030.47;;;21.47;73.09
18850;BME280;4989;48.772;9.154;2023-05-23T08:20:47;98041.03;;;21.48;73.32
18850;BME280;4989;48.772;9.154;2023-05-23T08:25:51;98050.94;;;21.29;74.00
18850;BME280;4989;48.772;9.154;2023-05-23T08:30:54;98049.88;;;21.21;75.47
18850;BME280;4989;48.772;9.154;2023-05-23T08:35:59;98061.53;;;20.99;71.94
18850;BME280;4989;48.772;9.154;2023-05-23T08:41:04;98067.38;;;21.07;76.08
18850;BME280;4989;48.772;9.154;2023-05-23T08:46:08;98076.38;;;21.01;73.68
18850;BME280;4989;48.772;9.154;2023-05-23T08:51:13;98074.41;;;21.08;71.79
18850;BME280;4989;48.772;9.154;2023-05-23T08:56:17;98082.97;;;21.10;72.14
18850;BME280;4989;48.772;9.154;2023-05-23T09:01:23;98087.94;;;21.05;72.03
18850;BME280;4989;48.772;9.154;2023-05-23T09:06:29;98093.47;;;21.05;73.19
18850;BME280;4989;48.772;9.154;2023-05-23T09:11:33;98097.16;;;21.23;71.56
18850;BME280;4989;48.772;9.154;2023-05-23T09:16:40;98101.59;;;21.15;71.01
18850;BME280;4989;48.772;9.154;2023-05-23T09:21:47;98105.16;;;21.21;71.26
18850;BME280;4989;48.772;9.154;2023-05-23T09:26:58;98109.72;;;21.24;73.10
18850;BME280;4989;48.772;9.154;2023-05-23T09:32:20;98103.38;;;21.18;70.97
18850;BME280;4989;48.772;9.154;2023-05-23T09:37:35;98109.94;;;21.20;71.47
18850;BME280;4989;48.772;9.154;2023-05-23T09:42:46;98109.22;;;21.25;73.06
18850;BME280;4989;48.772;9.154;2023-05-23T09:47:52;98112.56;;;21.35;71.49
18850;BME280;4989;48.772;9.154;2023-05-23T09:52:54;98106.72;;;21.59;67.87
18850;BME280;4989;48.772;9.154;2023-05-23T09:58:02;98112.75;;;21.58;67.45
18850;BME280;4989;48.772;9.154;2023-05-23T10:03:12;98105.97;;;21.59;68.93
18850;BME280;4989;48.772;9.154;2023-05-23T10:08:45;98101.09;;;21.85;67.04
18850;BME280;4989;48.772;9.154;2023-05-23T10:13:51;98107.28;;;22.12;64.85
18850;BME280;4989;48.772;9.154;2023-05-23T10:19:05;98101.41;;;22.64;65.99
18850;BME280;4989;48.772;9.154;2023-05-23T10:24:07;98105.66;;;24.06;57.20
18850;BME280;4989;48.772;9.154;2023-05-23T10:29:10;98104.09;;;24.10;55.90
18850;BME280;4989;48.772;9.154;2023-05-23T10:34:45;98105.81;;;24.25;57.49
18850;BME280;4989;48.772;9.154;2023-05-23T10:45:18;98108.50;;;22.88;63.88
18850;BME280;4989;48.772;9.154;2023-05-23T10:50:35;98108.47;;;22.65;61.98
18850;BME280;4989;48.772;9.154;2023-05-23T10:55:48;98112.22;;;22.62;63.73
18850;BME280;4989;48.772;9.154;2023-05-23T11:01:03;98108.97;;;22.58;64.68
18850;BME280;4989;48.772;9.154;2023-05-23T11:06:06;98112.97;;;22.46;62.56
18850;BME280;4989;48.772;9.154;2023-05-23T11:11:08;98117.00;;;22.56;65.76
18850;BME280;4989;48.772;9.154;2023-05-23T11:16:27;98108.66;;;22.50;63.78
18850;BME280;4989;48.772;9.154;2023-05-23T11:21:30;98123.53;;;22.53;61.98
18850;BME280;4989;48.772;9.154;2023-05-23T11:26:32;98121.28;;;22.62;64.25
18850;BME280;4989;48.772;9.154;2023-05-23T11:31:38;98119.59;;;23.66;57.55
18850;BME280;4989;48.772;9.154;2023-05-23T11:36:41;98125.91;;;23.61;54.58
18850;BME280;4989;48.772;9.154;2023-05-23T11:41:43;98114.81;;;22.94;57.17
18850;BME280;4989;48.772;9.154;2023-05-23T11:47:05;98118.50;;;22.57;61.08
18850;BME280;4989;48.772;9.154;2023-05-23T11:52:07;98115.59;;;23.05;58.90
18850;BME280;4989;48.772;9.154;2023-05-23T11:57:12;98123.91;;;23.11;56.45
18850;BME280;4989;48.772;9.154;2023-05-23T12:02:15;98127.19;;;23.26;55.55
18850;BME280;4989;48.772;9.154;2023-05-23T12:07:20;98118.09;;;23.76;59.28
18850;BME280;4989;48.772;9.154;2023-05-23T12:12:23;98113.59;;;23.06;59.95
18850;BME280;4989;48.772;9.154;2023-05-23T12:17:26;98103.25;;;22.95;58.42
18850;BME280;4989;48.772;9.154;2023-05-23T12:22:28;98102.75;;;25.17;53.74
18850;BME280;4989;48.772;9.154;2023-05-23T12:27:34;98101.47;;;28.49;44.02
18850;BME280;4989;48.772;9.154;2023-05-23T12:32:43;98095.56;;;28.39;44.63
18850;BME280;4989;48.772;9.154;2023-05-23T12:37:46;98086.56;;;26.57;48.21
18850;BME280;4989;48.772;9.154;2023-05-23T12:42:57;98081.25;;;25.17;54.21
18850;BME280;4989;48.772;9.154;2023-05-23T12:48:00;98088.94;;;26.28;51.54
18850;BME280;4989;48.772;9.154;2023-05-23T12:53:03;98083.97;;;26.21;49.70
18850;BME280;4989;48.772;9.154;2023-05-23T12:58:05;98077.53;;;27.60;47.10
18850;BME280;4989;48.772;9.154;2023-05-23T13:03:07;98079.06;;;29.17;44.35
18850;BME280;4989;48.772;9.154;2023-05-23T13:08:10;98071.75;;;29.43;42.95
18850;BME280;4989;48.772;9.154;2023-05-23T13:13:13;98064.06;;;29.36;44.38
18850;BME280;4989;48.772;9.154;2023-05-23T13:18:16;98067.63;;;28.94;45.38
18850;BME280;4989;48.772;9.154;2023-05-23T13:23:19;98063.06;;;26.52;49.24
18850;BME280;4989;48.772;9.154;2023-05-23T13:28:21;98057.09;;;25.31;51.73
18850;BME280;4989;48.772;9.154;2023-05-23T13:33:23;98058.56;;;24.30;53.91
18850;BME280;4989;48.772;9.154;2023-05-23T13:38:26;98076.97;;;23.64;57.94
18850;BME280;4989;48.772;9.154;2023-05-23T13:43:31;98079.75;;;23.58;57.77
18850;BME280;4989;48.772;9.154;2023-05-23T13:48:34;98089.84;;;23.72;56.14
18850;BME280;4989;48.772;9.154;2023-05-23T13:53:36;98092.84;;;23.74;56.62
18850;BME280;4989;48.772;9.154;2023-05-23T13:58:38;98093.31;;;23.84;58.29
18850;BME280;4989;48.772;9.154;2023-05-23T14:03:40;98082.00;;;23.60;56.89
18850;BME280;4989;48.772;9.154;2023-05-23T14:08:42;98089.34;;;23.57;58.13
18850;BME280;4989;48.772;9.154;2023-05-23T14:13:45;98077.72;;;23.53;56.87
18850;BME280;4989;48.772;9.154;2023-05-23T14:18:47;98086.56;;;23.51;59.48
18850;BME280;4989;48.772;9.154;2023-05-23T14:23:50;98079.41;;;23.90;59.00
18850;BME280;4989;48.772;9.154;2023-05-23T14:28:52;98082.56;;;25.65;52.52
18850;BME280;4989;48.772;9.154;2023-05-23T14:33:55;98071.59;;;25.48;53.32
18850;BME280;4989;48.772;9.154;2023-05-23T14:38:58;98076.94;;;25.71;53.27
18850;BME280;4989;48.772;9.154;2023-05-23T14:44:02;98061.00;;;26.15;51.33
18850;BME280;4989;48.772;9.154;2023-05-23T14:49:05;98064.81;;;25.44;54.65
18850;BME280;4989;48.772;9.154;2023-05-23T14:54:08;98066.13;;;24.30;58.12
18850;BME280;4989;48.772;9.154;2023-05-23T14:59:10;98064.50;;;23.93;58.99
18850;BME280;4989;48.772;9.154;2023-05-23T15:04:12;98068.38;;;23.73;57.94
18850;BME280;4989;48.772;9.154;2023-05-23T15:09:16;98073.44;;;23.63;55.91
18850;BME280;4989;48.772;9.154;2023-05-23T15:14:19;98056.06;;;23.46;60.91
18850;BME280;4989;48.772;9.154;2023-05-23T15:19:22;98052.47;;;23.73;59.50
18850;BME280;4989;48.772;9.154;2023-05-23T15:24:25;98056.69;;;24.03;57.53
18850;BME280;4989;48.772;9.154;2023-05-23T15:29:29;98055.59;;;24.11;58.42
18850;BME280;4989;48.772;9.154;2023-05-23T15:34:34;98057.94;;;23.96;57.21
18850;BME280;4989;48.772;9.154;2023-05-23T15:39:37;98059.06;;;23.70;59.73
18850;BME280;4989;48.772;9.154;2023-05-23T15:44:39;98054.97;;;23.83;57.52
18850;BME280;4989;48.772;9.154;2023-05-23T15:49:41;98054.25;;;23.71;57.80
18850;BME280;4989;48.772;9.154;2023-05-23T15:54:43;98060.59;;;23.49;57.50
18850;BME280;4989;48.772;9.154;2023-05-23T15:59:46;98056.34;;;23.08;59.85
18850;BME280;4989;48.772;9.154;2023-05-23T16:04:48;98051.56;;;22.98;60.26
18850;BME280;4989;48.772;9.154;2023-05-23T16:09:50;98048.00;;;22.80;58.81
18850;BME280;4989;48.772;9.154;2023-05-23T16:14:53;98058.06;;;22.61;60.70
18850;BME280;4989;48.772;9.154;2023-05-23T16:19:55;98051.25;;;22.56;62.43
18850;BME280;4989;48.772;9.154;2023-05-23T16:24:57;98052.75;;;22.46;62.67
18850;BME280;4989;48.772;9.154;2023-05-23T16:29:59;98056.28;;;22.52;62.84
18850;BME280;4989;48.772;9.154;2023-05-23T16:35:02;98051.25;;;22.45;63.19
18850;BME280;4989;48.772;9.154;2023-05-23T16:40:05;98047.47;;;22.43;60.75
18850;BME280;4989;48.772;9.154;2023-05-23T16:45:08;98041.63;;;22.29;61.54
18850;BME280;4989;48.772;9.154;2023-05-23T16:50:11;98041.63;;;22.18;64.05
18850;BME280;4989;48.772;9.154;2023-05-23T16:55:13;98042.31;;;22.13;63.75
18850;BME280;4989;48.772;9.154;2023-05-23T17:00:15;98051.34;;;22.08;65.01
18850;BME280;4989;48.772;9.154;2023-05-23T17:05:18;98047.81;;;22.02;64.66
18850;BME280;4989;48.772;9.154;2023-05-23T17:10:21;98060.88;;;21.95;65.32
18850;BME280;4989;48.772;9.154;2023-05-23T17:15:23;98048.25;;;21.83;64.71
18850;BME280;4989;48.772;9.154;2023-05-23T17:20:26;98058.06;;;21.79;63.64
18850;BME280;4989;48.772;9.154;2023-05-23T17:25:28;98060.56;;;21.77;64.05
18850;BME280;4989;48.772;9.154;2023-05-23T17:30:30;98056.28;;;21.81;63.49
18850;BME280;4989;48.772;9.154;2023-05-23T17:35:32;98059.56;;;21.80;65.49
18850;BME280;4989;48.772;9.154;2023-05-23T17:40:35;98062.81;;;21.72;64.43
18850;BME280;4989;48.772;9.154;2023-05-23T17:45:37;98075.84;;;21.72;64.96
18850;BME280;4989;48.772;9.154;2023-05-23T17:50:40;98076.88;;;21.75;65.99
18850;BME280;4989;48.772;9.154;2023-05-23T17:55:43;98072.31;;;21.66;64.91
18850;BME280;4989;48.772;9.154;2023-05-23T18:00:45;98086.13;;;21.66;65.08
18850;BME280;4989;48.772;9.154;2023-05-23T18:05:47;98084.13;;;21.61;65.05
18850;BME280;4989;48.772;9.154;2023-05-23T18:10:50;98093.97;;;21.67;65.11
18850;BME280;4989;48.772;9.154;2023-05-23T18:15:52;98095.38;;;21.57;64.50
18850;BME280;4989;48.772;9.154;2023-05-23T18:25:57;98097.88;;;21.49;67.49
18850;BME280;4989;48.772;9.154;2023-05-23T18:31:00;98111.97;;;21.52;66.15
18850;BME280;4989;48.772;9.154;2023-05-23T18:36:03;98109.91;;;21.46;66.62
18850;BME280;4989;48.772;9.154;2023-05-23T18:41:05;98109.69;;;21.50;64.45
18850;BME280;4989;48.772;9.154;2023-05-23T18:46:08;98120.97;;;21.46;64.23
18850;BME280;4989;48.772;9.154;2023-05-23T18:51:10;98126.41;;;21.35;66.18
18850;BME280;4989;48.772;9.154;2023-05-23T18:56:14;98132.81;;;21.47;64.39
18850;BME280;4989;48.772;9.154;2023-05-23T19:01:17;98137.53;;;21.41;64.61
18850;BME280;4989;48.772;9.154;2023-05-23T19:06:19;98149.09;;;21.39;65.21
18850;BME280;4989;48.772;9.154;2023-05-23T19:11:22;98150.09;;;21.36;65.40
18850;BME280;4989;48.772;9.154;2023-05-23T19:16:25;98161.31;;;21.33;64.93
18850;BME280;4989;48.772;9.154;2023-05-23T19:21:27;98160.16;;;21.13;67.28
18850;BME280;4989;48.772;9.154;2023-05-23T19:26:29;98180.63;;;21.27;66.95
18850;BME280;4989;48.772;9.154;2023-05-23T19:31:32;98182.69;;;21.32;66.02
18850;BME280;4989;48.772;9.154;2023-05-23T19:36:34;98188.81;;;21.36;64.67
18850;BME280;4989;48.772;9.154;2023-05-23T19:41:38;98188.66;;;21.25;65.38
18850;BME280;4989;48.772;9.154;2023-05-23T19:46:41;98202.31;;;21.08;67.42
18850;BME280;4989;48.772;9.154;2023-05-23T19:51:43;98211.53;;;21.25;66.41
18850;BME280;4989;48.772;9.154;2023-05-23T19:56:45;98208.19;;;21.16;64.69
18850;BME280;4989;48.772;9.154;2023-05-23T20:01:48;98210.34;;;21.06;66.80
18850;BME280;4989;48.772;9.154;2023-05-23T20:06:51;98218.59;;;21.00;69.02
18850;BME280;4989;48.772;9.154;2023-05-23T20:11:53;98223.56;;;20.96;68.64
18850;BME280;4989;48.772;9.154;2023-05-23T20:16:55;98237.31;;;20.91;64.42
18850;BME280;4989;48.772;9.154;2023-05-23T20:21:58;98238.50;;;20.84;64.45
18850;BME280;4989;48.772;9.154;2023-05-23T20:27:00;98249.31;;;20.88;63.28
18850;BME280;4989;48.772;9.154;2023-05-23T20:32:03;98241.25;;;20.84;67.48
18850;BME280;4989;48.772;9.154;2023-05-23T20:37:05;98251.47;;;20.78;63.34
18850;BME280;4989;48.772;9.154;2023-05-23T20:42:07;98253.84;;;20.65;66.34
18850;BME280;4989;48.772;9.154;2023-05-23T20:47:11;98265.03;;;20.76;63.05
18850;BME280;4989;48.772;9.154;2023-05-23T20:52:14;98277.88;;;20.79;65.88
18850;BME280;4989;48.772;9.154;2023-05-23T20:57:16;98283.13;;;20.77;67.03
18850;BME280;4989;48.772;9.154;2023-05-23T21:02:19;98283.13;;;20.77;63.93
18850;BME280;4989;48.772;9.154;2023-05-23T21:07:21;98291.69;;;20.79;63.99
18850;BME280;4989;48.772;9.154;2023-05-23T21:12:23;98290.44;;;20.59;64.21
18850;BME280;4989;48.772;9.154;2023-05-23T21:17:26;98295.41;;;20.55;63.09
18850;BME280;4989;48.772;9.154;2023-05-23T21:22:28;98297.31;;;20.49;64.84
18850;BME280;4989;48.772;9.154;2023-05-23T21:27:30;98311.13;;;20.49;68.46
18850;BME280;4989;48.772;9.154;2023-05-23T21:32:32;98299.91;;;20.38;63.83
18850;BME280;4989;48.772;9.154;2023-05-23T21:37:37;98293.00;;;20.28;66.41
18850;BME280;4989;48.772;9.154;2023-05-23T21:42:39;98284.41;;;20.26;65.06
18850;BME280;4989;48.772;9.154;2023-05-23T21:47:41;98284.25;;;20.14;63.88
18850;BME280;4989;48.772;9.154;2023-05-23T21:52:44;98283.69;;;20.10;62.85
18850;BME280;4989;48.772;9.154;2023-05-23T21:57:46;98290.72;;;20.11;64.77
18850;BME280;4989;48.772;9.154;2023-05-23T22:02:48;98292.63;;;20.05;64.62
18850;BME280;4989;48.772;9.154;2023-05-23T22:07:51;98300.25;;;20.10;63.80
18850;BME280;4989;48.772;9.154;2023-05-23T22:12:53;98320.63;;;19.83;62.82
18850;BME280;4989;48.772;9.154;2023-05-23T22:17:55;98317.97;;;19.89;67.04
18850;BME280;4989;48.772;9.154;2023-05-23T22:22:58;98314.56;;;19.94;62.32
18850;BME280;4989;48.772;9.154;2023-05-23T22:28:03;98309.13;;;19.85;63.13
18850;BME280;4989;48.772;9.154;2023-05-23T22:33:05;98309.59;;;19.98;63.00
18850;BME280;4989;48.772;9.154;2023-05-23T22:38:13;98318.81;;;19.95;64.12
18850;BME280;4989;48.772;9.154;2023-05-23T22:43:16;98313.94;;;19.60;62.53
18850;BME280;4989;48.772;9.154;2023-05-23T22:48:19;98312.41;;;19.44;64.31
18850;BME280;4989;48.772;9.154;2023-05-23T22:53:21;98314.22;;;19.09;68.99
18850;BME280;4989;48.772;9.154;2023-05-23T22:58:26;98307.31;;;19.13;67.25
18850;BME280;4989;48.772;9.154;2023-05-23T23:03:28;98306.78;;;19.39;69.96
18850;BME280;4989;48.772;9.154;2023-05-23T23:08:31;98303.53;;;19.64;69.94
18850;BME280;4989;48.772;9.154;2023-05-23T23:13:33;98309.13;;;19.70;65.88
18850;BME280;4989;48.772;9.154;2023-05-23T23:18:35;98307.47;;;19.63;71.38
18850;BME280;4989;48.772;9.154;2023-05-23T23:23:38;98298.06;;;19.55;70.45
18850;BME280;4989;48.772;9.154;2023-05-23T23:28:40;98306.91;;;19.59;66.52
18850;BME280;4989;48.772;9.154;2023-05-23T23:33:42;98309.19;;;19.46;68.12
18850;BME280;4989;48.772;9.154;2023-05-23T23:38:44;98308.41;;;19.60;66.16
18850;BME280;4989;48.772;9.154;2023-05-23T23:43:47;98312.41;;;19.59;68.87
18850;BME280;4989;48.772;9.154;2023-05-23T23:48:49;98308.44;;;19.45;69.73
18850;BME280;4989;48.772;9.154;2023-05-23T23:53:51;98308.41;;;19.31;63.58
18850;BME280;4989;48.772;9.154;2023-05-23T23:58:54;98298.88;;;19.32;65.98
